createdAt,value
2018-12-17T00:00:59.252Z,22.97
2018-12-17T00:03:25.308Z,22.17
2018-12-17T00:05:51.262Z,23.43
2018-12-17T00:08:17.233Z,21.40
2018-12-17T00:10:43.306Z,21.40
2018-12-17T00:13:09.241Z,19.63
2018-12-17T00:15:35.181Z,20.87
2018-12-17T00:18:01.129Z,21.10
2018-12-17T00:20:27.076Z,20.80
2018-12-17T00:22:53.008Z,21.70
2018-12-17T00:25:18.936Z,20.30
2018-12-17T00:27:44.981Z,20.87
2018-12-17T00:30:10.959Z,18.63
2018-12-17T00:32:36.887Z,17.03
2018-12-17T00:35:03.828Z,18.37
2018-12-17T00:37:30.047Z,17.33
2018-12-17T00:39:56.783Z,21.57
2018-12-17T00:42:22.820Z,20.10
2018-12-17T00:44:48.759Z,18.30
2018-12-17T00:47:18.664Z,19.03
2018-12-17T00:49:44.607Z,17.57
2018-12-17T00:52:10.552Z,16.63
2018-12-17T00:54:36.508Z,18.47
2018-12-17T00:57:02.673Z,17.77
2018-12-17T00:59:35.632Z,16.80
2018-12-17T01:02:01.694Z,17.40
2018-12-17T01:04:27.996Z,16.67
2018-12-17T01:06:54.028Z,17.20
2018-12-17T01:09:21.162Z,16.10
2018-12-17T01:11:47.320Z,16.87
2018-12-17T01:14:13.271Z,16.10
2018-12-17T01:16:39.215Z,17.83
2018-12-17T01:19:05.168Z,16.20
2018-12-17T01:21:31.524Z,16.00
2018-12-17T01:23:57.577Z,15.33
2018-12-17T01:26:23.939Z,15.53
2018-12-17T01:28:50.012Z,15.73
2018-12-17T01:31:16.813Z,15.80
2018-12-17T01:33:42.748Z,15.87
2018-12-17T01:36:08.701Z,17.10
2018-12-17T01:38:34.769Z,15.90
2018-12-17T01:41:00.844Z,15.37
2018-12-17T01:43:26.889Z,16.80
2018-12-17T01:45:52.945Z,16.70
2018-12-17T01:48:18.991Z,18.40
2018-12-17T01:50:45.133Z,18.13
2018-12-17T01:53:11.205Z,18.10
2018-12-17T01:55:37.142Z,19.63
2018-12-17T01:58:03.399Z,18.30
2018-12-17T02:00:29.319Z,19.57
2018-12-17T02:02:55.257Z,17.90
2018-12-17T02:05:21.908Z,19.67
2018-12-17T02:07:47.852Z,19.43
2018-12-17T02:10:13.910Z,17.30
2018-12-17T02:12:39.981Z,18.67
2018-12-17T02:15:06.159Z,17.47
2018-12-17T02:17:32.108Z,15.93
2018-12-17T02:19:58.157Z,16.07
2018-12-17T02:22:24.087Z,15.40
2018-12-17T02:24:50.045Z,15.87
2018-12-17T02:27:15.975Z,15.80
2018-12-17T02:29:41.927Z,16.10
2018-12-17T02:32:08.090Z,14.17
2018-12-17T02:34:34.040Z,15.03
2018-12-17T02:36:59.976Z,14.97
2018-12-17T02:39:25.925Z,16.53
2018-12-17T02:41:51.986Z,15.80
2018-12-17T02:44:18.247Z,16.90
2018-12-17T02:46:44.180Z,16.77
2018-12-17T02:49:10.552Z,15.40
2018-12-17T02:51:37.600Z,13.50
2018-12-17T02:54:04.255Z,13.47
2018-12-17T02:56:30.713Z,13.83
2018-12-17T02:58:56.687Z,12.43
2018-12-17T03:01:22.682Z,12.53
2018-12-17T03:03:48.681Z,11.30
2018-12-17T03:06:14.736Z,12.73
2018-12-17T03:08:40.792Z,10.87
2018-12-17T03:11:06.833Z,11.90
2018-12-17T03:13:32.785Z,10.23
2018-12-17T03:15:58.729Z,10.13
2018-12-17T03:18:24.895Z,10.90
2018-12-17T03:20:51.029Z,9.93
2018-12-17T03:23:16.962Z,10.17
2018-12-17T03:25:42.904Z,8.83
2018-12-17T03:28:08.968Z,8.13
2018-12-17T03:30:35.119Z,8.50
2018-12-17T03:33:01.178Z,8.40
2018-12-17T03:35:27.242Z,9.33
2018-12-17T03:37:53.188Z,9.43
2018-12-17T03:40:19.234Z,9.90
2018-12-17T03:42:45.192Z,9.13
2018-12-17T03:45:11.135Z,9.77
2018-12-17T03:47:37.282Z,9.93
2018-12-17T03:50:04.840Z,9.60
2018-12-17T03:52:30.809Z,10.03
2018-12-17T03:54:56.881Z,10.20
2018-12-17T03:57:22.818Z,11.23
2018-12-17T03:59:48.757Z,11.57
2018-12-17T04:02:14.826Z,10.33
2018-12-17T04:04:41.294Z,11.57
2018-12-17T04:07:07.235Z,10.63
2018-12-17T04:09:33.189Z,11.23
2018-12-17T04:11:59.236Z,11.37
2018-12-17T04:14:25.197Z,12.50
2018-12-17T04:16:51.137Z,11.87
2018-12-17T04:19:17.160Z,12.67
2018-12-17T04:21:43.195Z,14.50
2018-12-17T04:24:16.237Z,15.77
2018-12-17T04:26:42.180Z,13.67
2018-12-17T04:29:08.105Z,14.33
2018-12-17T04:31:34.213Z,15.53
2018-12-17T04:34:00.176Z,15.73
2018-12-17T04:36:26.220Z,17.30
2018-12-17T04:38:52.190Z,17.53
2018-12-17T04:41:18.136Z,17.77
2018-12-17T04:43:44.077Z,18.33
2018-12-17T04:46:10.042Z,18.17
2018-12-17T04:48:43.080Z,18.67
2018-12-17T04:51:09.545Z,19.10
2018-12-17T04:53:35.676Z,16.73
2018-12-17T04:56:01.625Z,15.30
2018-12-17T04:58:27.569Z,14.60
2018-12-17T05:00:53.630Z,14.27
2018-12-17T05:03:19.593Z,13.30
2018-12-17T05:05:45.760Z,15.20
2018-12-17T05:08:11.841Z,15.00
2018-12-17T05:10:37.809Z,13.57
2018-12-17T05:13:03.852Z,16.43
2018-12-17T05:15:29.831Z,13.30
2018-12-17T05:17:55.775Z,13.97
2018-12-17T05:20:21.733Z,13.03
2018-12-17T05:22:47.674Z,17.33
2018-12-17T05:25:13.850Z,15.03
2018-12-17T05:27:39.794Z,14.87
2018-12-17T05:30:06.844Z,16.10
2018-12-17T05:32:32.780Z,15.43
2018-12-17T05:34:58.830Z,14.90
2018-12-17T05:37:24.804Z,15.20
2018-12-17T05:39:50.824Z,26.10
2018-12-17T05:42:16.773Z,22.20
2018-12-17T05:44:42.819Z,18.07
2018-12-17T05:47:09.022Z,18.37
2018-12-17T05:49:34.969Z,21.47
2018-12-17T05:52:00.908Z,21.20
2018-12-17T05:54:26.871Z,21.80
2018-12-17T05:56:52.797Z,21.13
2018-12-17T05:59:18.753Z,20.23
2018-12-17T06:01:44.908Z,21.13
2018-12-17T06:04:10.850Z,21.20
2018-12-17T06:06:36.889Z,21.07
2018-12-17T06:09:05.481Z,20.83
2018-12-17T06:11:31.729Z,21.27
2018-12-17T06:13:57.889Z,23.73
2018-12-17T06:16:30.897Z,22.80
2018-12-17T06:18:56.832Z,21.43
2018-12-17T06:21:22.912Z,23.97
2018-12-17T06:23:48.965Z,21.00
2018-12-17T06:26:14.948Z,22.03
2018-12-17T06:28:40.871Z,23.13
2018-12-17T06:31:06.949Z,24.53
2018-12-17T06:33:32.905Z,22.77
2018-12-17T06:35:58.856Z,23.37
2018-12-17T06:38:24.829Z,21.40
2018-12-17T06:40:50.921Z,22.90
2018-12-17T06:43:16.887Z,20.03
2018-12-17T06:45:42.937Z,20.63
2018-12-17T06:48:08.996Z,19.67
2018-12-17T06:50:35.045Z,20.17
2018-12-17T06:53:01.112Z,20.67
2018-12-17T06:55:27.077Z,18.13
2018-12-17T06:57:53.429Z,18.13
2018-12-17T07:00:19.879Z,16.33
2018-12-17T07:02:45.818Z,15.63
2018-12-17T07:05:11.766Z,16.77
2018-12-17T07:07:37.714Z,17.40
2018-12-17T07:10:03.956Z,18.80
2018-12-17T07:12:30.015Z,18.57
2018-12-17T07:14:55.969Z,18.30
2018-12-17T07:17:21.899Z,17.60
2018-12-17T07:19:47.895Z,18.50
2018-12-17T07:22:13.830Z,20.23
2018-12-17T07:24:40.020Z,20.30
2018-12-17T07:27:05.986Z,22.03
2018-12-17T07:29:32.057Z,20.57
2018-12-17T07:31:58.029Z,21.47
2018-12-17T07:34:24.490Z,21.67
2018-12-17T07:36:50.526Z,19.43
2018-12-17T07:39:16.718Z,21.50
2018-12-17T07:41:42.700Z,22.23
2018-12-17T07:44:08.832Z,21.37
2018-12-17T07:46:34.880Z,21.23
2018-12-17T07:49:00.823Z,23.40
2018-12-17T07:51:26.867Z,22.43
2018-12-17T07:53:52.844Z,18.23
2018-12-17T07:56:18.980Z,17.90
2018-12-17T07:58:44.936Z,19.03
2018-12-17T08:01:10.889Z,20.80
2018-12-17T08:03:36.842Z,19.60
2018-12-17T08:06:03.355Z,19.93
2018-12-17T08:08:35.156Z,21.07
2018-12-17T08:10:57.353Z,19.63
2018-12-17T08:13:23.528Z,21.37
2018-12-17T08:15:49.690Z,18.30
2018-12-17T08:18:20.062Z,18.07
2018-12-17T08:20:46.612Z,18.90
2018-12-17T08:23:12.669Z,17.43
2018-12-17T08:25:38.605Z,18.30
2018-12-17T08:28:04.547Z,19.07
2018-12-17T08:30:30.589Z,18.17
2018-12-17T08:32:56.548Z,20.07
2018-12-17T08:35:22.691Z,23.07
2018-12-17T08:37:48.625Z,21.30
2018-12-17T08:40:14.680Z,20.90
2018-12-17T08:42:40.628Z,21.47
2018-12-17T08:45:06.777Z,20.43
2018-12-17T08:47:32.725Z,19.90
2018-12-17T08:50:05.629Z,19.27
2018-12-17T08:52:31.577Z,20.30
2018-12-17T08:54:57.750Z,19.50
2018-12-17T08:57:23.728Z,20.73
2018-12-17T08:59:49.657Z,20.83
2018-12-17T09:02:15.722Z,18.20
2018-12-17T09:04:41.766Z,20.77
2018-12-17T09:07:07.924Z,22.17
2018-12-17T09:09:33.936Z,19.37
2018-12-17T09:11:59.889Z,20.13
2018-12-17T09:14:25.833Z,19.30
2018-12-17T09:16:51.787Z,19.73
2018-12-17T09:19:17.737Z,19.27
2018-12-17T09:21:43.691Z,20.17
2018-12-17T09:24:09.731Z,18.70
2018-12-17T09:26:35.788Z,19.47
2018-12-17T09:29:01.737Z,19.17
2018-12-17T09:31:27.789Z,19.70
2018-12-17T09:33:53.996Z,18.23
2018-12-17T09:36:19.953Z,19.23
2018-12-17T09:38:45.906Z,19.13
2018-12-17T09:41:12.101Z,17.83
2018-12-17T09:43:38.047Z,19.10
2018-12-17T09:46:04.189Z,18.07
2018-12-17T09:48:30.149Z,18.93
2018-12-17T09:50:56.592Z,17.10
2018-12-17T09:53:22.533Z,18.67
2018-12-17T09:55:48.719Z,17.87
2018-12-17T09:58:14.797Z,16.77
2018-12-17T10:00:40.882Z,18.37
2018-12-17T10:03:07.187Z,16.40
2018-12-17T10:05:33.238Z,17.63
2018-12-17T10:07:59.283Z,17.40
2018-12-17T10:10:25.226Z,18.50
2018-12-17T10:12:51.193Z,18.27
2018-12-17T10:15:17.136Z,18.07
2018-12-17T10:17:43.108Z,17.47
2018-12-17T10:20:09.152Z,17.73
2018-12-17T10:22:35.283Z,19.50
2018-12-17T10:25:01.242Z,19.40
2018-12-17T10:27:27.263Z,19.67
2018-12-17T10:29:53.309Z,17.57
2018-12-17T10:32:19.353Z,18.13
2018-12-17T10:34:45.649Z,17.33
2018-12-17T10:37:11.693Z,17.17
2018-12-17T10:39:37.738Z,17.30
2018-12-17T10:42:03.803Z,16.30
2018-12-17T10:44:29.740Z,17.03
2018-12-17T10:46:55.720Z,16.00
2018-12-17T10:49:21.668Z,15.40
2018-12-17T10:51:47.781Z,16.30
2018-12-17T10:54:13.837Z,16.13
2018-12-17T10:56:39.797Z,16.10
2018-12-17T10:59:05.756Z,17.33
2018-12-17T11:01:37.875Z,15.50
2018-12-17T11:04:05.840Z,14.70
2018-12-17T11:06:31.883Z,15.63
2018-12-17T11:08:57.940Z,16.90
2018-12-17T11:11:23.909Z,15.50
2018-12-17T11:13:49.876Z,16.00
2018-12-17T11:16:15.830Z,14.83
2018-12-17T11:18:41.893Z,14.13
2018-12-17T11:21:07.988Z,14.20
2018-12-17T11:23:34.036Z,14.60
2018-12-17T11:26:00.075Z,14.50
2018-12-17T11:28:26.022Z,14.57
2018-12-17T11:30:52.019Z,12.63
2018-12-17T11:33:17.958Z,13.50
2018-12-17T11:35:44.025Z,15.07
2018-12-17T11:38:10.067Z,13.07
2018-12-17T11:40:36.141Z,13.17
2018-12-17T11:43:02.297Z,14.47
2018-12-17T11:45:28.567Z,14.40
2018-12-17T11:47:54.526Z,14.90
2018-12-17T11:50:20.580Z,15.33
2018-12-17T11:52:46.506Z,15.27
2018-12-17T11:55:12.457Z,14.73
2018-12-17T11:57:48.393Z,15.97
2018-12-17T12:00:14.733Z,14.67
2018-12-17T12:02:40.715Z,14.10
2018-12-17T12:05:06.789Z,14.77
2018-12-17T12:07:32.863Z,15.17
2018-12-17T12:09:58.801Z,14.67
2018-12-17T12:12:24.749Z,14.20
2018-12-17T12:14:50.695Z,13.97
2018-12-17T12:17:16.649Z,14.70
2018-12-17T12:19:42.590Z,14.63
2018-12-17T12:22:08.528Z,14.27
2018-12-17T12:24:34.478Z,14.93
2018-12-17T12:27:00.439Z,14.37
2018-12-17T12:29:26.424Z,14.40
2018-12-17T12:31:52.390Z,13.67
2018-12-17T12:34:18.346Z,13.63
2018-12-17T12:36:44.286Z,14.70
2018-12-17T12:39:10.336Z,14.30
2018-12-17T12:41:36.283Z,15.10
2018-12-17T12:44:08.661Z,14.83
2018-12-17T12:46:30.502Z,15.43
2018-12-17T12:48:56.560Z,15.47
2018-12-17T12:51:22.498Z,14.63
2018-12-17T12:53:48.463Z,13.57
2018-12-17T12:56:14.424Z,15.70
2018-12-17T12:58:40.409Z,16.03
2018-12-17T13:01:07.771Z,15.10
2018-12-17T13:03:33.897Z,14.10
2018-12-17T13:05:59.863Z,14.87
2018-12-17T13:08:26.037Z,14.30
2018-12-17T13:10:52.091Z,15.90
2018-12-17T13:13:18.183Z,16.10
2018-12-17T13:15:44.150Z,16.03
2018-12-17T13:18:10.130Z,15.90
2018-12-17T13:20:36.080Z,14.97
2018-12-17T13:23:02.178Z,16.10
2018-12-17T13:25:29.346Z,16.33
2018-12-17T13:27:55.413Z,16.13
2018-12-17T13:30:21.382Z,14.17
2018-12-17T13:32:47.346Z,14.63
2018-12-17T13:35:13.305Z,15.13
2018-12-17T13:37:39.250Z,14.57
2018-12-17T13:40:07.031Z,15.20
2018-12-17T13:42:32.977Z,14.40
2018-12-17T13:44:59.431Z,16.37
2018-12-17T13:47:25.363Z,16.77
2018-12-17T13:49:51.333Z,16.33
2018-12-17T13:52:23.483Z,16.00
2018-12-17T13:54:49.572Z,15.53
2018-12-17T13:57:15.527Z,15.90
2018-12-17T13:59:41.473Z,14.63
2018-12-17T14:02:09.424Z,16.33
2018-12-17T14:04:35.571Z,15.10
2018-12-17T14:07:01.617Z,15.93
2018-12-17T14:09:27.582Z,14.80
2018-12-17T14:11:53.518Z,15.37
2018-12-17T14:14:19.577Z,14.80
2018-12-17T14:16:58.491Z,14.63
2018-12-17T14:19:24.681Z,14.37
2018-12-17T14:21:56.877Z,15.70
2018-12-17T14:24:22.818Z,14.17
2018-12-17T14:26:49.093Z,14.63
2018-12-17T14:29:15.038Z,14.40
2018-12-17T14:31:41.100Z,14.57
2018-12-17T14:34:07.177Z,16.00
2018-12-17T14:36:33.163Z,13.63
2018-12-17T14:38:59.217Z,14.27
2018-12-17T14:41:25.388Z,13.33
2018-12-17T14:43:53.345Z,14.17
2018-12-17T14:46:19.287Z,12.83
2018-12-17T14:48:45.346Z,13.63
2018-12-17T14:51:11.409Z,15.17
2018-12-17T14:53:37.371Z,13.57
2018-12-17T14:56:03.516Z,15.03
2018-12-17T14:58:29.468Z,14.73
2018-12-17T15:00:55.411Z,14.27
2018-12-17T15:03:21.395Z,13.60
2018-12-17T15:05:47.349Z,13.73
2018-12-17T15:08:13.316Z,13.93
2018-12-17T15:10:39.489Z,13.83
2018-12-17T15:13:05.457Z,13.77
2018-12-17T15:15:31.402Z,14.47
2018-12-17T15:17:57.456Z,14.43
2018-12-17T15:20:23.513Z,14.63
2018-12-17T15:22:49.586Z,14.87
2018-12-17T15:25:15.629Z,13.93
2018-12-17T15:27:41.624Z,13.60
2018-12-17T15:30:07.893Z,13.67
2018-12-17T15:32:33.824Z,12.87
2018-12-17T15:34:59.814Z,13.03
2018-12-17T15:37:25.866Z,13.40
2018-12-17T15:39:52.029Z,13.00
2018-12-17T15:42:17.977Z,12.40
2018-12-17T15:44:43.929Z,13.20
2018-12-17T15:47:09.869Z,12.40
2018-12-17T15:49:35.909Z,12.63
2018-12-17T15:52:01.868Z,12.47
2018-12-17T15:54:27.944Z,12.90
2018-12-17T15:56:53.972Z,12.23
2018-12-17T15:59:20.241Z,12.80
2018-12-17T16:01:50.069Z,14.03
2018-12-17T16:04:14.184Z,13.27
2018-12-17T16:06:40.137Z,12.87
2018-12-17T16:09:06.533Z,12.67
2018-12-17T16:11:32.589Z,12.73
2018-12-17T16:13:58.555Z,13.63
2018-12-17T16:16:24.509Z,12.27
2018-12-17T16:18:50.575Z,12.80
2018-12-17T16:21:16.628Z,12.33
2018-12-17T16:23:49.824Z,12.77
2018-12-17T16:26:15.789Z,12.83
2018-12-17T16:28:41.742Z,11.53
2018-12-17T16:31:07.698Z,12.23
2018-12-17T16:33:33.746Z,11.20
2018-12-17T16:35:59.704Z,11.07
2018-12-17T16:38:25.872Z,12.20
2018-12-17T16:40:52.011Z,12.93
2018-12-17T16:43:17.978Z,12.40
2018-12-17T16:45:44.049Z,11.87
2018-12-17T16:48:10.101Z,11.53
2018-12-17T16:50:36.272Z,12.47
2018-12-17T16:53:02.417Z,12.47
2018-12-17T16:55:28.469Z,12.73
2018-12-17T16:57:54.431Z,12.57
2018-12-17T17:00:20.497Z,13.10
2018-12-17T17:02:46.453Z,12.47
2018-12-17T17:05:12.401Z,12.53
2018-12-17T17:07:38.458Z,14.13
2018-12-17T17:10:07.532Z,12.97
2018-12-17T17:12:33.597Z,13.87
2018-12-17T17:14:59.769Z,12.33
2018-12-17T17:17:25.713Z,11.90
2018-12-17T17:19:51.662Z,13.43
2018-12-17T17:22:17.620Z,14.23
2018-12-17T17:24:43.566Z,12.83
2018-12-17T17:27:12.468Z,13.07
2018-12-17T17:29:38.536Z,13.20
2018-12-17T17:35:06.258Z,11.60
2018-12-17T17:37:32.238Z,12.13
2018-12-17T17:39:58.404Z,12.33
2018-12-17T17:42:24.609Z,12.07
2018-12-17T17:44:50.678Z,13.17
2018-12-17T17:47:16.659Z,14.60
2018-12-17T17:49:42.625Z,12.97
2018-12-17T17:52:08.595Z,11.90
2018-12-17T17:54:34.572Z,11.87
2018-12-17T17:57:00.514Z,12.83
2018-12-17T17:59:26.763Z,12.80
2018-12-17T18:01:52.887Z,12.57
2018-12-17T18:04:18.993Z,13.10
2018-12-17T18:06:45.244Z,11.93
2018-12-17T18:09:11.328Z,15.10
2018-12-17T18:11:37.431Z,14.20
2018-12-17T18:14:03.612Z,12.80
2018-12-17T18:16:29.793Z,13.07
2018-12-17T18:18:55.756Z,12.70
2018-12-17T18:21:21.809Z,13.53
2018-12-17T18:23:47.855Z,13.20
2018-12-17T18:26:13.808Z,12.47
2018-12-17T18:28:39.759Z,11.73
2018-12-17T18:31:05.841Z,13.27
2018-12-17T18:33:31.900Z,12.37
2018-12-17T18:35:57.835Z,13.07
2018-12-17T18:38:23.926Z,11.17
2018-12-17T18:40:49.975Z,12.97
2018-12-17T18:43:16.239Z,12.07
2018-12-17T18:45:42.435Z,12.93
2018-12-17T18:48:08.680Z,12.53
2018-12-17T18:50:34.637Z,12.37
2018-12-17T18:53:00.713Z,12.17
2018-12-17T18:55:26.687Z,12.87
2018-12-17T18:57:52.616Z,12.30
2018-12-17T19:00:18.809Z,11.90
2018-12-17T19:02:45.022Z,13.07
2018-12-17T19:05:10.961Z,12.67
2018-12-17T19:07:36.979Z,12.33
2018-12-17T19:10:04.647Z,13.73
2018-12-17T19:12:30.621Z,12.87
2018-12-17T19:14:56.609Z,13.30
2018-12-17T19:17:22.592Z,14.00
2018-12-17T19:19:48.585Z,15.87
2018-12-17T19:22:14.926Z,13.57
2018-12-17T19:24:40.890Z,11.90
2018-12-17T19:27:06.848Z,12.77
2018-12-17T19:29:32.862Z,12.60
2018-12-17T19:31:58.833Z,12.50
2018-12-17T19:34:25.055Z,12.30
2018-12-17T19:36:51.360Z,12.63
2018-12-17T19:39:17.412Z,13.30
2018-12-17T19:41:43.393Z,13.70
2018-12-17T19:44:09.520Z,12.33
2018-12-17T19:46:35.457Z,14.23
2018-12-17T19:49:01.709Z,12.83
2018-12-17T19:51:27.761Z,12.73
2018-12-17T19:53:53.808Z,12.37
2018-12-17T19:56:19.961Z,12.80
2018-12-17T19:58:46.006Z,12.43
2018-12-17T20:01:12.089Z,11.43
2018-12-17T20:03:38.011Z,11.80
2018-12-17T20:06:04.350Z,11.47
2018-12-17T20:08:30.345Z,11.50
2018-12-17T20:10:56.288Z,11.47
2018-12-17T20:13:22.248Z,11.87
2018-12-17T20:15:48.214Z,11.80
2018-12-17T20:18:14.167Z,12.20
2018-12-17T20:20:40.109Z,11.67
2018-12-17T20:23:06.090Z,11.33
2018-12-17T20:25:32.029Z,11.53
2018-12-17T20:27:57.970Z,11.77
2018-12-17T20:30:23.947Z,10.70
2018-12-17T20:32:53.569Z,10.50
2018-12-17T20:35:17.979Z,10.60
2018-12-17T20:37:43.936Z,10.23
2018-12-17T20:40:10.094Z,9.60
2018-12-17T20:42:36.089Z,13.33
2018-12-17T20:45:03.357Z,12.07
2018-12-17T20:47:29.417Z,12.00
2018-12-17T20:49:55.394Z,12.93
2018-12-17T20:52:21.352Z,11.93
2018-12-17T20:54:47.306Z,13.50
2018-12-17T20:57:13.266Z,12.73
2018-12-17T20:59:39.367Z,13.07
2018-12-17T21:02:05.540Z,14.10
2018-12-17T21:04:31.489Z,14.13
2018-12-17T21:06:57.453Z,12.97
2018-12-17T21:09:23.404Z,12.13
2018-12-17T21:11:49.370Z,10.90
2018-12-17T21:14:15.363Z,11.47
2018-12-17T21:16:41.475Z,11.70
2018-12-17T21:19:07.520Z,12.53
2018-12-17T21:21:33.463Z,11.37
2018-12-17T21:23:59.517Z,11.07
2018-12-17T21:26:25.478Z,10.10
2018-12-17T21:28:51.528Z,11.00
2018-12-17T21:31:17.482Z,11.70
2018-12-17T21:33:43.441Z,11.20
2018-12-17T21:36:09.500Z,10.23
2018-12-17T21:38:35.651Z,10.27
2018-12-17T21:41:01.579Z,10.97
2018-12-17T21:43:27.533Z,10.33
2018-12-17T21:45:53.499Z,11.13
2018-12-17T21:48:19.562Z,10.97
2018-12-17T21:50:45.529Z,11.27
2018-12-17T21:53:11.697Z,11.23
2018-12-17T21:55:37.656Z,11.23
2018-12-17T21:58:03.614Z,10.97
2018-12-17T22:00:29.585Z,10.97
2018-12-17T22:02:55.545Z,11.90
2018-12-17T22:05:21.744Z,11.03
2018-12-17T22:07:47.711Z,11.33
2018-12-17T22:10:15.893Z,10.47
2018-12-17T22:12:41.905Z,9.67
2018-12-17T22:15:08.002Z,9.80
2018-12-17T22:17:33.954Z,9.70
2018-12-17T22:20:00.012Z,9.90
2018-12-17T22:22:26.088Z,10.43
2018-12-17T22:24:52.040Z,11.23
2018-12-17T22:27:17.980Z,10.33
2018-12-17T22:29:43.931Z,10.37
2018-12-17T22:32:09.893Z,10.87
2018-12-17T22:34:35.845Z,10.73
2018-12-17T22:37:02.014Z,11.37
2018-12-17T22:39:28.063Z,10.53
2018-12-17T22:41:54.578Z,10.67
2018-12-17T22:44:20.632Z,10.37
2018-12-17T22:46:46.677Z,10.97
2018-12-17T22:49:12.857Z,12.10
2018-12-17T22:51:38.925Z,11.03
2018-12-17T22:54:05.035Z,11.47
2018-12-17T22:56:31.081Z,11.03
2018-12-17T22:58:57.345Z,9.77
2018-12-17T23:01:23.524Z,10.43
2018-12-17T23:03:49.470Z,11.57
2018-12-17T23:06:15.545Z,12.03
2018-12-17T23:08:49.544Z,11.10
2018-12-17T23:11:28.023Z,11.40
2018-12-17T23:14:06.560Z,11.70
2018-12-17T23:16:44.986Z,11.40
2018-12-17T23:19:10.801Z,11.17
2018-12-17T23:21:36.981Z,11.90
2018-12-17T23:24:09.963Z,10.83
2018-12-17T23:26:36.085Z,11.37
2018-12-17T23:29:02.156Z,11.37
2018-12-17T23:31:28.224Z,10.87
2018-12-17T23:33:54.179Z,9.60
2018-12-17T23:36:20.170Z,9.77
2018-12-17T23:38:46.130Z,10.37
2018-12-17T23:41:12.073Z,10.67
2018-12-17T23:43:38.029Z,10.73
2018-12-17T23:46:04.017Z,11.20
2018-12-17T23:48:30.093Z,11.13
2018-12-17T23:50:56.033Z,9.97
2018-12-17T23:53:22.001Z,10.13
2018-12-17T23:55:48.074Z,10.67
2018-12-17T23:58:14.145Z,11.67
